sensor_id;sensor_type;location;lat;lon;timestamp;temperature;humidity
5792;DHT22;2922;53.482;10.006;2022-08-20T00:01:39;19.30;99.90
5792;DHT22;2922;53.482;10.006;2022-08-20T00:04:05;19.30;99.90
5792;DHT22;2922;53.482;10.006;2022-08-20T00:06:30;19.30;99.90
5792;DHT22;2922;53.482;10.006;2022-08-20T00:08:56;19.30;99.90
5792;DHT22;2922;53.482;10.006;2022-08-20T00:11:25;19.40;99.90
5792;DHT22;2922;53.482;10.006;2022-08-20T00:13:56;19.30;99.90
5792;DHT22;2922;53.482;10.006;2022-08-20T00:16:24;19.40;99.90
5792;DHT22;2922;53.482;10.006;2022-08-20T00:18:51;19.40;99.90
5792;DHT22;2922;53.482;10.006;2022-08-20T00:21:19;19.40;99.90
5792;DHT22;2922;53.482;10.006;2022-08-20T00:23:47;19.40;99.90
5792;DHT22;2922;53.482;10.006;2022-08-20T00:26:13;19.30;99.90
5792;DHT22;2922;53.482;10.006;2022-08-20T00:28:39;19.40;99.90
5792;DHT22;2922;53.482;10.006;2022-08-20T00:31:07;19.40;99.90
5792;DHT22;2922;53.482;10.006;2022-08-20T00:33:34;19.30;99.90
5792;DHT22;2922;53.482;10.006;2022-08-20T00:36:00;19.40;99.90
5792;DHT22;2922;53.482;10.006;2022-08-20T00:38:36;19.40;99.90
5792;DHT22;2922;53.482;10.006;2022-08-20T00:41:04;19.40;99.90
5792;DHT22;2922;53.482;10.006;2022-08-20T00:43:36;19.30;99.90
5792;DHT22;2922;53.482;10.006;2022-08-20T00:46:11;19.30;99.90
5792;DHT22;2922;53.482;10.006;2022-08-20T00:48:40;19.30;99.90
5792;DHT22;2922;53.482;10.006;2022-08-20T00:53:35;19.30;99.90
5792;DHT22;2922;53.482;10.006;2022-08-20T00:56:03;19.30;99.90
5792;DHT22;2922;53.482;10.006;2022-08-20T00:58:30;19.30;99.90
5792;DHT22;2922;53.482;10.006;2022-08-20T01:00:55;19.40;99.90
5792;DHT22;2922;53.482;10.006;2022-08-20T01:03:22;19.40;99.90
5792;DHT22;2922;53.482;10.006;2022-08-20T01:05:49;19.40;99.90
5792;DHT22;2922;53.482;10.006;2022-08-20T01:08:18;19.30;99.90
5792;DHT22;2922;53.482;10.006;2022-08-20T01:10:46;19.30;99.90
5792;DHT22;2922;53.482;10.006;2022-08-20T01:13:17;19.30;99.90
5792;DHT22;2922;53.482;10.006;2022-08-20T01:15:47;19.30;99.90
5792;DHT22;2922;53.482;10.006;2022-08-20T01:18:16;19.30;99.90
5792;DHT22;2922;53.482;10.006;2022-08-20T01:20:48;19.20;99.90
5792;DHT22;2922;53.482;10.006;2022-08-20T01:23:43;19.20;99.90
5792;DHT22;2922;53.482;10.006;2022-08-20T01:26:22;19.20;99.90
5792;DHT22;2922;53.482;10.006;2022-08-20T01:28:54;19.20;99.90
5792;DHT22;2922;53.482;10.006;2022-08-20T01:31:23;19.20;99.90
5792;DHT22;2922;53.482;10.006;2022-08-20T01:33:51;19.10;99.90
5792;DHT22;2922;53.482;10.006;2022-08-20T01:36:22;19.10;99.90
5792;DHT22;2922;53.482;10.006;2022-08-20T01:38:48;19.10;99.90
5792;DHT22;2922;53.482;10.006;2022-08-20T01:44:02;19.10;99.90
5792;DHT22;2922;53.482;10.006;2022-08-20T01:46:35;19.10;99.90
5792;DHT22;2922;53.482;10.006;2022-08-20T01:49:15;19.10;99.90
5792;DHT22;2922;53.482;10.006;2022-08-20T01:51:42;19.10;99.90
5792;DHT22;2922;53.482;10.006;2022-08-20T01:54:08;19.10;99.90
5792;DHT22;2922;53.482;10.006;2022-08-20T01:56:35;19.10;99.90
5792;DHT22;2922;53.482;10.006;2022-08-20T01:59:03;19.10;99.90
5792;DHT22;2922;53.482;10.006;2022-08-20T02:01:35;19.10;99.90
5792;DHT22;2922;53.482;10.006;2022-08-20T02:04:03;19.10;99.90
5792;DHT22;2922;53.482;10.006;2022-08-20T02:06:32;19.10;99.90
5792;DHT22;2922;53.482;10.006;2022-08-20T02:09:00;19.20;99.90
5792;DHT22;2922;53.482;10.006;2022-08-20T02:11:28;19.20;99.90
5792;DHT22;2922;53.482;10.006;2022-08-20T02:13:54;19.20;99.90
5792;DHT22;2922;53.482;10.006;2022-08-20T02:16:31;19.20;99.90
5792;DHT22;2922;53.482;10.006;2022-08-20T02:19:06;19.20;99.90
5792;DHT22;2922;53.482;10.006;2022-08-20T02:21:36;19.20;99.90
5792;DHT22;2922;53.482;10.006;2022-08-20T02:24:03;19.20;99.90
5792;DHT22;2922;53.482;10.006;2022-08-20T02:26:29;19.20;99.90
5792;DHT22;2922;53.482;10.006;2022-08-20T02:28:55;19.20;99.90
5792;DHT22;2922;53.482;10.006;2022-08-20T02:31:22;19.20;99.90
5792;DHT22;2922;53.482;10.006;2022-08-20T02:33:49;19.30;99.90
5792;DHT22;2922;53.482;10.006;2022-08-20T02:36:16;19.30;99.90
5792;DHT22;2922;53.482;10.006;2022-08-20T02:38:43;19.30;99.90
5792;DHT22;2922;53.482;10.006;2022-08-20T02:41:10;19.30;99.90
5792;DHT22;2922;53.482;10.006;2022-08-20T02:43:37;19.30;99.90
5792;DHT22;2922;53.482;10.006;2022-08-20T02:46:04;19.30;99.90
5792;DHT22;2922;53.482;10.006;2022-08-20T02:48:30;19.30;99.90
5792;DHT22;2922;53.482;10.006;2022-08-20T02:51:01;19.30;99.90
5792;DHT22;2922;53.482;10.006;2022-08-20T02:53:29;19.30;99.90
5792;DHT22;2922;53.482;10.006;2022-08-20T02:55:55;19.20;99.90
5792;DHT22;2922;53.482;10.006;2022-08-20T02:58:21;19.30;99.90
5792;DHT22;2922;53.482;10.006;2022-08-20T03:00:48;19.20;99.90
5792;DHT22;2922;53.482;10.006;2022-08-20T03:03:15;19.30;99.90
5792;DHT22;2922;53.482;10.006;2022-08-20T03:05:44;19.20;99.90
5792;DHT22;2922;53.482;10.006;2022-08-20T03:08:11;19.20;99.90
5792;DHT22;2922;53.482;10.006;2022-08-20T03:10:39;19.20;99.90
5792;DHT22;2922;53.482;10.006;2022-08-20T03:13:06;19.20;99.90
5792;DHT22;2922;53.482;10.006;2022-08-20T03:15:37;19.20;99.90
5792;DHT22;2922;53.482;10.006;2022-08-20T03:18:03;19.20;99.90
5792;DHT22;2922;53.482;10.006;2022-08-20T03:20:29;19.10;99.90
5792;DHT22;2922;53.482;10.006;2022-08-20T03:22:55;19.10;99.90
5792;DHT22;2922;53.482;10.006;2022-08-20T03:25:20;19.10;99.90
5792;DHT22;2922;53.482;10.006;2022-08-20T03:27:46;19.10;99.90
5792;DHT22;2922;53.482;10.006;2022-08-20T03:30:14;19.10;99.90
5792;DHT22;2922;53.482;10.006;2022-08-20T03:32:40;19.10;99.90
5792;DHT22;2922;53.482;10.006;2022-08-20T03:35:08;19.10;99.90
5792;DHT22;2922;53.482;10.006;2022-08-20T03:37:35;19.10;99.90
5792;DHT22;2922;53.482;10.006;2022-08-20T03:40:04;19.10;99.90
5792;DHT22;2922;53.482;10.006;2022-08-20T03:42:30;19.10;99.90
5792;DHT22;2922;53.482;10.006;2022-08-20T03:44:56;19.10;99.90
5792;DHT22;2922;53.482;10.006;2022-08-20T03:47:21;19.20;99.90
5792;DHT22;2922;53.482;10.006;2022-08-20T03:49:48;19.10;99.90
5792;DHT22;2922;53.482;10.006;2022-08-20T03:52:14;19.20;99.90
5792;DHT22;2922;53.482;10.006;2022-08-20T03:54:41;19.20;99.90
5792;DHT22;2922;53.482;10.006;2022-08-20T03:57:13;19.20;99.90
5792;DHT22;2922;53.482;10.006;2022-08-20T03:59:41;19.30;99.90
5792;DHT22;2922;53.482;10.006;2022-08-20T04:02:06;19.20;99.90
5792;DHT22;2922;53.482;10.006;2022-08-20T04:04:32;19.20;99.90
5792;DHT22;2922;53.482;10.006;2022-08-20T04:06:58;19.20;99.90
5792;DHT22;2922;53.482;10.006;2022-08-20T04:09:23;19.20;99.90
5792;DHT22;2922;53.482;10.006;2022-08-20T04:11:49;19.20;99.90
5792;DHT22;2922;53.482;10.006;2022-08-20T04:14:14;19.30;99.90
5792;DHT22;2922;53.482;10.006;2022-08-20T04:16:40;19.20;99.90
5792;DHT22;2922;53.482;10.006;2022-08-20T04:19:06;19.20;99.90
5792;DHT22;2922;53.482;10.006;2022-08-20T04:21:33;19.20;99.90
5792;DHT22;2922;53.482;10.006;2022-08-20T04:24:01;19.20;99.90
5792;DHT22;2922;53.482;10.006;2022-08-20T04:26:27;19.20;99.90
5792;DHT22;2922;53.482;10.006;2022-08-20T04:28:52;19.20;99.90
5792;DHT22;2922;53.482;10.006;2022-08-20T04:31:19;19.20;99.90
5792;DHT22;2922;53.482;10.006;2022-08-20T04:33:45;19.20;99.90
5792;DHT22;2922;53.482;10.006;2022-08-20T04:36:11;19.20;99.90
5792;DHT22;2922;53.482;10.006;2022-08-20T04:38:39;19.20;99.90
5792;DHT22;2922;53.482;10.006;2022-08-20T04:41:04;19.20;99.90
5792;DHT22;2922;53.482;10.006;2022-08-20T04:43:33;19.20;99.90
5792;DHT22;2922;53.482;10.006;2022-08-20T04:46:03;19.20;99.90
5792;DHT22;2922;53.482;10.006;2022-08-20T04:48:30;19.20;99.90
5792;DHT22;2922;53.482;10.006;2022-08-20T04:50:57;19.20;99.90
5792;DHT22;2922;53.482;10.006;2022-08-20T04:53:25;19.20;99.90
5792;DHT22;2922;53.482;10.006;2022-08-20T04:55:53;19.20;99.90
5792;DHT22;2922;53.482;10.006;2022-08-20T04:58:23;19.20;99.90
5792;DHT22;2922;53.482;10.006;2022-08-20T05:00:54;19.20;99.90
5792;DHT22;2922;53.482;10.006;2022-08-20T05:03:21;19.20;99.90
5792;DHT22;2922;53.482;10.006;2022-08-20T05:05:47;19.10;99.90
5792;DHT22;2922;53.482;10.006;2022-08-20T05:08:15;19.10;99.90
5792;DHT22;2922;53.482;10.006;2022-08-20T05:10:42;19.10;99.90
5792;DHT22;2922;53.482;10.006;2022-08-20T05:13:08;19.10;99.90
5792;DHT22;2922;53.482;10.006;2022-08-20T05:15:35;19.10;99.90
5792;DHT22;2922;53.482;10.006;2022-08-20T05:18:02;19.10;99.90
5792;DHT22;2922;53.482;10.006;2022-08-20T05:20:32;19.10;99.90
5792;DHT22;2922;53.482;10.006;2022-08-20T05:22:59;19.10;99.90
5792;DHT22;2922;53.482;10.006;2022-08-20T05:25:26;19.10;99.90
5792;DHT22;2922;53.482;10.006;2022-08-20T05:27:59;19.10;99.90
5792;DHT22;2922;53.482;10.006;2022-08-20T05:30:27;19.10;99.90
5792;DHT22;2922;53.482;10.006;2022-08-20T05:33:02;19.10;99.90
5792;DHT22;2922;53.482;10.006;2022-08-20T05:35:29;19.10;99.90
5792;DHT22;2922;53.482;10.006;2022-08-20T05:37:55;19.30;99.90
5792;DHT22;2922;53.482;10.006;2022-08-20T05:40:22;19.20;99.90
5792;DHT22;2922;53.482;10.006;2022-08-20T05:42:48;19.20;99.90
5792;DHT22;2922;53.482;10.006;2022-08-20T05:45:14;19.30;99.90
5792;DHT22;2922;53.482;10.006;2022-08-20T05:47:41;19.40;99.90
5792;DHT22;2922;53.482;10.006;2022-08-20T05:50:09;19.40;99.90
5792;DHT22;2922;53.482;10.006;2022-08-20T05:52:35;19.40;99.90
5792;DHT22;2922;53.482;10.006;2022-08-20T05:55:03;19.40;99.90
5792;DHT22;2922;53.482;10.006;2022-08-20T05:57:29;19.50;99.90
5792;DHT22;2922;53.482;10.006;2022-08-20T05:59:54;19.50;99.90
5792;DHT22;2922;53.482;10.006;2022-08-20T06:02:20;19.70;99.90
5792;DHT22;2922;53.482;10.006;2022-08-20T06:05:04;19.70;99.90
5792;DHT22;2922;53.482;10.006;2022-08-20T06:07:30;19.70;99.90
5792;DHT22;2922;53.482;10.006;2022-08-20T06:09:55;19.80;99.90
5792;DHT22;2922;53.482;10.006;2022-08-20T06:12:21;19.80;99.90
5792;DHT22;2922;53.482;10.006;2022-08-20T06:14:46;19.80;99.90
5792;DHT22;2922;53.482;10.006;2022-08-20T06:17:15;19.90;99.90
5792;DHT22;2922;53.482;10.006;2022-08-20T06:19:43;19.90;99.90
5792;DHT22;2922;53.482;10.006;2022-08-20T06:22:09;19.90;99.90
5792;DHT22;2922;53.482;10.006;2022-08-20T06:24:35;19.90;99.90
5792;DHT22;2922;53.482;10.006;2022-08-20T06:27:03;19.90;99.90
5792;DHT22;2922;53.482;10.006;2022-08-20T06:29:29;19.90;99.90
5792;DHT22;2922;53.482;10.006;2022-08-20T06:31:57;19.90;99.90
5792;DHT22;2922;53.482;10.006;2022-08-20T06:34:23;19.90;99.90
5792;DHT22;2922;53.482;10.006;2022-08-20T06:36:55;19.90;99.90
5792;DHT22;2922;53.482;10.006;2022-08-20T06:39:22;20.00;99.90
5792;DHT22;2922;53.482;10.006;2022-08-20T06:41:48;20.00;99.90
5792;DHT22;2922;53.482;10.006;2022-08-20T06:44:13;20.10;99.90
5792;DHT22;2922;53.482;10.006;2022-08-20T06:46:39;20.20;99.90
5792;DHT22;2922;53.482;10.006;2022-08-20T06:49:06;20.30;99.90
5792;DHT22;2922;53.482;10.006;2022-08-20T06:51:33;20.30;99.90
5792;DHT22;2922;53.482;10.006;2022-08-20T06:53:59;20.30;99.90
5792;DHT22;2922;53.482;10.006;2022-08-20T06:56:25;20.40;99.90
5792;DHT22;2922;53.482;10.006;2022-08-20T06:58:50;20.40;99.90
5792;DHT22;2922;53.482;10.006;2022-08-20T07:01:16;20.70;99.90
5792;DHT22;2922;53.482;10.006;2022-08-20T07:03:46;20.80;99.90
5792;DHT22;2922;53.482;10.006;2022-08-20T07:06:13;21.00;99.90
5792;DHT22;2922;53.482;10.006;2022-08-20T07:08:38;21.10;99.90
5792;DHT22;2922;53.482;10.006;2022-08-20T07:11:05;21.10;99.90
5792;DHT22;2922;53.482;10.006;2022-08-20T07:13:30;21.10;99.90
5792;DHT22;2922;53.482;10.006;2022-08-20T07:15:56;21.20;99.90
5792;DHT22;2922;53.482;10.006;2022-08-20T07:18:22;21.20;99.90
5792;DHT22;2922;53.482;10.006;2022-08-20T07:20:48;21.20;99.90
5792;DHT22;2922;53.482;10.006;2022-08-20T07:23:14;21.40;99.90
5792;DHT22;2922;53.482;10.006;2022-08-20T07:25:42;21.30;99.90
5792;DHT22;2922;53.482;10.006;2022-08-20T07:28:13;21.30;99.90
5792;DHT22;2922;53.482;10.006;2022-08-20T07:30:40;21.30;99.90
5792;DHT22;2922;53.482;10.006;2022-08-20T07:33:26;21.40;99.90
5792;DHT22;2922;53.482;10.006;2022-08-20T07:35:53;21.40;99.90
5792;DHT22;2922;53.482;10.006;2022-08-20T07:38:20;21.40;99.90
5792;DHT22;2922;53.482;10.006;2022-08-20T07:40:50;21.40;99.90
5792;DHT22;2922;53.482;10.006;2022-08-20T07:43:16;21.70;99.90
5792;DHT22;2922;53.482;10.006;2022-08-20T07:45:42;21.80;99.90
5792;DHT22;2922;53.482;10.006;2022-08-20T07:48:11;21.80;99.90
5792;DHT22;2922;53.482;10.006;2022-08-20T07:50:37;22.00;99.90
5792;DHT22;2922;53.482;10.006;2022-08-20T07:53:03;22.20;99.90
5792;DHT22;2922;53.482;10.006;2022-08-20T07:55:29;22.30;99.90
5792;DHT22;2922;53.482;10.006;2022-08-20T07:57:57;22.30;99.90
5792;DHT22;2922;53.482;10.006;2022-08-20T08:00:23;22.40;99.90
5792;DHT22;2922;53.482;10.006;2022-08-20T08:02:50;22.50;99.90
5792;DHT22;2922;53.482;10.006;2022-08-20T08:05:16;22.60;99.90
5792;DHT22;2922;53.482;10.006;2022-08-20T08:07:42;22.70;99.90
5792;DHT22;2922;53.482;10.006;2022-08-20T08:10:11;22.80;99.90
5792;DHT22;2922;53.482;10.006;2022-08-20T08:12:42;22.70;99.90
5792;DHT22;2922;53.482;10.006;2022-08-20T08:15:14;22.80;99.90
5792;DHT22;2922;53.482;10.006;2022-08-20T08:17:42;22.70;99.90
5792;DHT22;2922;53.482;10.006;2022-08-20T08:20:09;22.80;99.90
5792;DHT22;2922;53.482;10.006;2022-08-20T08:22:36;23.10;99.90
5792;DHT22;2922;53.482;10.006;2022-08-20T08:25:04;23.20;99.90
5792;DHT22;2922;53.482;10.006;2022-08-20T08:27:30;23.30;99.90
5792;DHT22;2922;53.482;10.006;2022-08-20T08:29:58;23.30;99.90
5792;DHT22;2922;53.482;10.006;2022-08-20T08:32:25;23.40;99.90
5792;DHT22;2922;53.482;10.006;2022-08-20T08:34:50;23.60;99.90
5792;DHT22;2922;53.482;10.006;2022-08-20T08:37:16;23.80;99.90
5792;DHT22;2922;53.482;10.006;2022-08-20T08:39:41;23.90;99.90
5792;DHT22;2922;53.482;10.006;2022-08-20T08:42:34;23.70;99.90
5792;DHT22;2922;53.482;10.006;2022-08-20T08:45:00;23.70;99.90
5792;DHT22;2922;53.482;10.006;2022-08-20T08:47:32;23.70;99.90
5792;DHT22;2922;53.482;10.006;2022-08-20T08:50:01;23.60;99.90
5792;DHT22;2922;53.482;10.006;2022-08-20T08:52:29;23.50;99.90
5792;DHT22;2922;53.482;10.006;2022-08-20T08:54:58;23.50;99.90
5792;DHT22;2922;53.482;10.006;2022-08-20T08:57:24;23.60;99.90
5792;DHT22;2922;53.482;10.006;2022-08-20T09:00:12;23.50;99.90
5792;DHT22;2922;53.482;10.006;2022-08-20T09:03:02;23.60;99.90
5792;DHT22;2922;53.482;10.006;2022-08-20T09:05:47;23.60;99.90
5792;DHT22;2922;53.482;10.006;2022-08-20T09:08:16;23.60;99.90
5792;DHT22;2922;53.482;10.006;2022-08-20T09:10:44;23.50;99.90
5792;DHT22;2922;53.482;10.006;2022-08-20T09:13:10;23.50;99.90
5792;DHT22;2922;53.482;10.006;2022-08-20T09:15:36;23.50;99.90
5792;DHT22;2922;53.482;10.006;2022-08-20T09:18:02;23.50;99.90
5792;DHT22;2922;53.482;10.006;2022-08-20T09:20:27;23.60;99.90
5792;DHT22;2922;53.482;10.006;2022-08-20T09:22:54;23.60;99.90
5792;DHT22;2922;53.482;10.006;2022-08-20T09:25:20;23.50;99.90
5792;DHT22;2922;53.482;10.006;2022-08-20T09:27:45;23.50;99.90
5792;DHT22;2922;53.482;10.006;2022-08-20T09:30:12;23.40;99.90
5792;DHT22;2922;53.482;10.006;2022-08-20T09:32:38;23.40;99.90
5792;DHT22;2922;53.482;10.006;2022-08-20T09:35:04;23.50;99.90
5792;DHT22;2922;53.482;10.006;2022-08-20T09:37:31;23.70;99.90
5792;DHT22;2922;53.482;10.006;2022-08-20T09:39:58;24.00;99.90
5792;DHT22;2922;53.482;10.006;2022-08-20T09:42:30;24.30;99.90
5792;DHT22;2922;53.482;10.006;2022-08-20T09:44:56;24.50;99.90
5792;DHT22;2922;53.482;10.006;2022-08-20T09:47:22;24.70;99.90
5792;DHT22;2922;53.482;10.006;2022-08-20T09:49:48;24.90;99.90
5792;DHT22;2922;53.482;10.006;2022-08-20T09:52:37;24.90;99.90
5792;DHT22;2922;53.482;10.006;2022-08-20T09:55:19;24.50;99.90
5792;DHT22;2922;53.482;10.006;2022-08-20T09:57:45;24.40;99.90
5792;DHT22;2922;53.482;10.006;2022-08-20T10:00:11;24.50;99.90
5792;DHT22;2922;53.482;10.006;2022-08-20T10:02:37;24.60;99.90
5792;DHT22;2922;53.482;10.006;2022-08-20T10:05:04;24.70;99.90
5792;DHT22;2922;53.482;10.006;2022-08-20T10:07:29;24.60;99.90
5792;DHT22;2922;53.482;10.006;2022-08-20T10:09:55;24.60;99.90
5792;DHT22;2922;53.482;10.006;2022-08-20T10:12:21;25.10;99.90
5792;DHT22;2922;53.482;10.006;2022-08-20T10:14:46;25.20;99.90
5792;DHT22;2922;53.482;10.006;2022-08-20T10:17:12;25.40;99.90
5792;DHT22;2922;53.482;10.006;2022-08-20T10:19:38;25.50;99.90
5792;DHT22;2922;53.482;10.006;2022-08-20T10:22:04;25.50;99.90
5792;DHT22;2922;53.482;10.006;2022-08-20T10:24:30;25.50;99.90
5792;DHT22;2922;53.482;10.006;2022-08-20T10:26:57;25.70;99.90
5792;DHT22;2922;53.482;10.006;2022-08-20T10:29:24;25.50;99.90
5792;DHT22;2922;53.482;10.006;2022-08-20T10:31:50;25.90;99.90
5792;DHT22;2922;53.482;10.006;2022-08-20T10:34:16;25.90;99.90
5792;DHT22;2922;53.482;10.006;2022-08-20T10:36:42;25.80;99.90
5792;DHT22;2922;53.482;10.006;2022-08-20T10:39:08;25.80;99.90
5792;DHT22;2922;53.482;10.006;2022-08-20T10:41:34;25.80;99.90
5792;DHT22;2922;53.482;10.006;2022-08-20T10:43:59;26.00;99.90
5792;DHT22;2922;53.482;10.006;2022-08-20T10:46:25;25.70;99.90
5792;DHT22;2922;53.482;10.006;2022-08-20T10:48:51;25.30;99.90
5792;DHT22;2922;53.482;10.006;2022-08-20T10:51:16;25.40;99.90
5792;DHT22;2922;53.482;10.006;2022-08-20T10:53:42;25.10;99.90
5792;DHT22;2922;53.482;10.006;2022-08-20T10:56:08;25.00;99.90
5792;DHT22;2922;53.482;10.006;2022-08-20T10:58:33;24.90;99.90
5792;DHT22;2922;53.482;10.006;2022-08-20T11:00:59;24.90;99.90
5792;DHT22;2922;53.482;10.006;2022-08-20T11:03:25;24.90;99.90
5792;DHT22;2922;53.482;10.006;2022-08-20T11:05:50;24.90;99.90
5792;DHT22;2922;53.482;10.006;2022-08-20T11:08:16;24.80;99.90
5792;DHT22;2922;53.482;10.006;2022-08-20T11:10:41;24.90;99.90
5792;DHT22;2922;53.482;10.006;2022-08-20T11:13:07;24.90;99.90
5792;DHT22;2922;53.482;10.006;2022-08-20T11:15:36;25.00;99.90
5792;DHT22;2922;53.482;10.006;2022-08-20T11:18:03;24.80;99.90
5792;DHT22;2922;53.482;10.006;2022-08-20T11:20:29;24.90;99.90
5792;DHT22;2922;53.482;10.006;2022-08-20T11:22:56;24.80;99.90
5792;DHT22;2922;53.482;10.006;2022-08-20T11:25:23;24.90;99.90
5792;DHT22;2922;53.482;10.006;2022-08-20T11:27:50;24.90;99.90
5792;DHT22;2922;53.482;10.006;2022-08-20T11:30:20;25.00;99.90
5792;DHT22;2922;53.482;10.006;2022-08-20T11:32:46;25.00;99.90
5792;DHT22;2922;53.482;10.006;2022-08-20T11:35:12;25.10;99.90
5792;DHT22;2922;53.482;10.006;2022-08-20T11:37:38;25.00;99.90
5792;DHT22;2922;53.482;10.006;2022-08-20T11:40:05;24.90;99.90
5792;DHT22;2922;53.482;10.006;2022-08-20T11:42:33;24.90;99.90
5792;DHT22;2922;53.482;10.006;2022-08-20T11:44:59;25.10;99.90
5792;DHT22;2922;53.482;10.006;2022-08-20T11:47:28;25.10;99.90
5792;DHT22;2922;53.482;10.006;2022-08-20T11:50:08;25.10;99.90
5792;DHT22;2922;53.482;10.006;2022-08-20T11:52:34;25.00;99.90
5792;DHT22;2922;53.482;10.006;2022-08-20T11:55:00;25.10;99.90
5792;DHT22;2922;53.482;10.006;2022-08-20T11:57:30;25.10;99.90
5792;DHT22;2922;53.482;10.006;2022-08-20T11:59:58;25.20;99.90
5792;DHT22;2922;53.482;10.006;2022-08-20T12:02:24;25.00;99.90
5792;DHT22;2922;53.482;10.006;2022-08-20T12:04:50;24.90;99.90
5792;DHT22;2922;53.482;10.006;2022-08-20T12:07:22;24.90;99.90
5792;DHT22;2922;53.482;10.006;2022-08-20T12:09:48;25.20;99.90
5792;DHT22;2922;53.482;10.006;2022-08-20T12:12:14;25.30;99.90
5792;DHT22;2922;53.482;10.006;2022-08-20T12:14:41;25.40;99.90
5792;DHT22;2922;53.482;10.006;2022-08-20T12:17:18;25.20;99.90
5792;DHT22;2922;53.482;10.006;2022-08-20T12:19:46;25.10;99.90
5792;DHT22;2922;53.482;10.006;2022-08-20T12:22:12;25.10;99.90
5792;DHT22;2922;53.482;10.006;2022-08-20T12:24:38;25.00;99.90
5792;DHT22;2922;53.482;10.006;2022-08-20T12:27:11;25.00;99.90
5792;DHT22;2922;53.482;10.006;2022-08-20T12:29:39;25.10;99.90
5792;DHT22;2922;53.482;10.006;2022-08-20T12:32:05;25.10;99.90
5792;DHT22;2922;53.482;10.006;2022-08-20T12:34:35;25.10;99.90
5792;DHT22;2922;53.482;10.006;2022-08-20T12:37:03;24.90;99.90
5792;DHT22;2922;53.482;10.006;2022-08-20T12:39:30;25.20;99.90
5792;DHT22;2922;53.482;10.006;2022-08-20T12:41:58;25.20;99.90
5792;DHT22;2922;53.482;10.006;2022-08-20T12:44:25;25.20;94.90
5792;DHT22;2922;53.482;10.006;2022-08-20T12:46:50;25.40;99.90
5792;DHT22;2922;53.482;10.006;2022-08-20T12:49:16;25.50;99.90
5792;DHT22;2922;53.482;10.006;2022-08-20T12:51:41;25.70;97.00
5792;DHT22;2922;53.482;10.006;2022-08-20T12:54:07;25.40;99.90
5792;DHT22;2922;53.482;10.006;2022-08-20T12:56:33;25.40;98.90
5792;DHT22;2922;53.482;10.006;2022-08-20T12:58:58;25.20;99.80
5792;DHT22;2922;53.482;10.006;2022-08-20T13:01:24;25.10;99.90
5792;DHT22;2922;53.482;10.006;2022-08-20T13:03:49;25.20;98.20
5792;DHT22;2922;53.482;10.006;2022-08-20T13:06:15;25.40;99.10
5792;DHT22;2922;53.482;10.006;2022-08-20T13:08:40;25.50;92.60
5792;DHT22;2922;53.482;10.006;2022-08-20T13:11:06;25.70;96.40
5792;DHT22;2922;53.482;10.006;2022-08-20T13:13:31;25.60;84.50
5792;DHT22;2922;53.482;10.006;2022-08-20T13:15:57;25.80;81.70
5792;DHT22;2922;53.482;10.006;2022-08-20T13:18:23;25.80;90.70
5792;DHT22;2922;53.482;10.006;2022-08-20T13:20:48;25.90;85.30
5792;DHT22;2922;53.482;10.006;2022-08-20T13:23:14;25.90;76.90
5792;DHT22;2922;53.482;10.006;2022-08-20T13:25:40;26.10;80.00
5792;DHT22;2922;53.482;10.006;2022-08-20T13:28:05;26.20;72.90
5792;DHT22;2922;53.482;10.006;2022-08-20T13:30:33;26.00;74.30
5792;DHT22;2922;53.482;10.006;2022-08-20T13:32:59;26.00;75.30
5792;DHT22;2922;53.482;10.006;2022-08-20T13:35:25;26.20;78.30
5792;DHT22;2922;53.482;10.006;2022-08-20T13:37:50;26.00;71.50
5792;DHT22;2922;53.482;10.006;2022-08-20T13:40:16;25.80;73.30
5792;DHT22;2922;53.482;10.006;2022-08-20T13:42:42;25.70;69.10
5792;DHT22;2922;53.482;10.006;2022-08-20T13:45:08;25.90;77.50
5792;DHT22;2922;53.482;10.006;2022-08-20T13:47:36;26.10;80.90
5792;DHT22;2922;53.482;10.006;2022-08-20T13:52:35;26.20;74.40
5792;DHT22;2922;53.482;10.006;2022-08-20T13:55:01;26.00;79.30
5792;DHT22;2922;53.482;10.006;2022-08-20T13:57:27;26.10;88.80
5792;DHT22;2922;53.482;10.006;2022-08-20T13:59:56;26.30;92.70
5792;DHT22;2922;53.482;10.006;2022-08-20T14:02:23;26.40;84.60
5792;DHT22;2922;53.482;10.006;2022-08-20T14:04:50;26.10;90.90
5792;DHT22;2922;53.482;10.006;2022-08-20T14:07:23;25.60;81.40
5792;DHT22;2922;53.482;10.006;2022-08-20T14:09:52;25.40;91.50
5792;DHT22;2922;53.482;10.006;2022-08-20T14:12:19;25.40;93.50
5792;DHT22;2922;53.482;10.006;2022-08-20T14:14:44;25.40;91.50
5792;DHT22;2922;53.482;10.006;2022-08-20T14:17:31;25.30;90.10
5792;DHT22;2922;53.482;10.006;2022-08-20T14:20:00;25.30;86.30
5792;DHT22;2922;53.482;10.006;2022-08-20T14:22:25;25.20;86.70
5792;DHT22;2922;53.482;10.006;2022-08-20T14:24:51;25.10;88.80
5792;DHT22;2922;53.482;10.006;2022-08-20T14:27:20;25.00;87.90
5792;DHT22;2922;53.482;10.006;2022-08-20T14:29:48;25.10;92.10
5792;DHT22;2922;53.482;10.006;2022-08-20T14:32:15;25.00;95.10
5792;DHT22;2922;53.482;10.006;2022-08-20T14:34:41;25.00;90.50
5792;DHT22;2922;53.482;10.006;2022-08-20T14:37:13;24.80;93.50
5792;DHT22;2922;53.482;10.006;2022-08-20T14:39:40;24.80;90.30
5792;DHT22;2922;53.482;10.006;2022-08-20T14:42:06;24.70;91.70
5792;DHT22;2922;53.482;10.006;2022-08-20T14:44:32;24.70;97.50
5792;DHT22;2922;53.482;10.006;2022-08-20T14:49:40;24.70;97.10
5792;DHT22;2922;53.482;10.006;2022-08-20T14:52:06;24.60;90.20
5792;DHT22;2922;53.482;10.006;2022-08-20T14:54:32;24.50;91.00
5792;DHT22;2922;53.482;10.006;2022-08-20T14:56:58;24.30;85.80
5792;DHT22;2922;53.482;10.006;2022-08-20T14:59:24;24.30;92.20
5792;DHT22;2922;53.482;10.006;2022-08-20T15:01:49;24.30;90.60
5792;DHT22;2922;53.482;10.006;2022-08-20T15:04:15;24.30;86.90
5792;DHT22;2922;53.482;10.006;2022-08-20T15:06:43;24.30;92.90
5792;DHT22;2922;53.482;10.006;2022-08-20T15:09:09;24.60;93.90
5792;DHT22;2922;53.482;10.006;2022-08-20T15:11:34;24.40;85.80
5792;DHT22;2922;53.482;10.006;2022-08-20T15:14:03;24.50;86.60
5792;DHT22;2922;53.482;10.006;2022-08-20T15:16:29;24.50;86.40
5792;DHT22;2922;53.482;10.006;2022-08-20T15:18:54;24.40;82.20
5792;DHT22;2922;53.482;10.006;2022-08-20T15:21:20;24.40;93.70
5792;DHT22;2922;53.482;10.006;2022-08-20T15:23:46;24.20;87.10
5792;DHT22;2922;53.482;10.006;2022-08-20T15:26:11;24.20;87.60
5792;DHT22;2922;53.482;10.006;2022-08-20T15:28:37;24.30;85.40
5792;DHT22;2922;53.482;10.006;2022-08-20T15:31:08;24.20;83.70
5792;DHT22;2922;53.482;10.006;2022-08-20T15:33:34;24.20;91.50
5792;DHT22;2922;53.482;10.006;2022-08-20T15:35:59;24.30;84.10
5792;DHT22;2922;53.482;10.006;2022-08-20T15:38:25;24.30;82.20
5792;DHT22;2922;53.482;10.006;2022-08-20T15:40:51;24.30;83.10
5792;DHT22;2922;53.482;10.006;2022-08-20T15:43:16;24.40;80.80
5792;DHT22;2922;53.482;10.006;2022-08-20T15:45:42;24.40;80.00
5792;DHT22;2922;53.482;10.006;2022-08-20T15:48:14;24.30;78.40
5792;DHT22;2922;53.482;10.006;2022-08-20T16:01:54;23.90;78.90
5792;DHT22;2922;53.482;10.006;2022-08-20T16:07:04;24.00;86.80
5792;DHT22;2922;53.482;10.006;2022-08-20T16:10:05;24.10;82.80
5792;DHT22;2922;53.482;10.006;2022-08-20T16:12:38;24.10;85.00